sensor_id;sensor_type;location;lat;lon;timestamp;P1;durP1;ratioP1;P2;durP2;ratioP2
13090;SDS011;6611;52.604;13.438;2022-08-19T00:02:08;15.30;;;14.00;;
13090;SDS011;6611;52.604;13.438;2022-08-19T00:07:09;15.77;;;14.33;;
13090;SDS011;6611;52.604;13.438;2022-08-19T00:12:12;15.63;;;14.33;;
13090;SDS011;6611;52.604;13.438;2022-08-19T00:17:15;15.73;;;14.43;;
13090;SDS011;6611;52.604;13.438;2022-08-19T00:22:16;17.00;;;15.40;;
13090;SDS011;6611;52.604;13.438;2022-08-19T00:27:19;17.17;;;15.57;;
13090;SDS011;6611;52.604;13.438;2022-08-19T00:32:21;16.97;;;15.47;;
13090;SDS011;6611;52.604;13.438;2022-08-19T00:37:23;17.33;;;15.93;;
13090;SDS011;6611;52.604;13.438;2022-08-19T00:42:27;18.03;;;16.23;;
13090;SDS011;6611;52.604;13.438;2022-08-19T00:47:29;17.40;;;15.90;;
13090;SDS011;6611;52.604;13.438;2022-08-19T00:52:32;18.83;;;17.03;;
13090;SDS011;6611;52.604;13.438;2022-08-19T00:57:38;17.47;;;16.03;;
13090;SDS011;6611;52.604;13.438;2022-08-19T01:02:42;16.83;;;15.43;;
13090;SDS011;6611;52.604;13.438;2022-08-19T01:07:44;17.00;;;15.57;;
13090;SDS011;6611;52.604;13.438;2022-08-19T01:12:48;17.73;;;16.27;;
13090;SDS011;6611;52.604;13.438;2022-08-19T01:17:51;18.13;;;16.33;;
13090;SDS011;6611;52.604;13.438;2022-08-19T01:22:56;19.13;;;17.33;;
13090;SDS011;6611;52.604;13.438;2022-08-19T01:27:59;19.03;;;17.33;;
13090;SDS011;6611;52.604;13.438;2022-08-19T01:33:01;18.17;;;16.53;;
13090;SDS011;6611;52.604;13.438;2022-08-19T01:38:08;17.40;;;15.93;;
13090;SDS011;6611;52.604;13.438;2022-08-19T01:43:19;17.90;;;16.27;;
13090;SDS011;6611;52.604;13.438;2022-08-19T01:48:21;19.40;;;17.63;;
13090;SDS011;6611;52.604;13.438;2022-08-19T01:53:25;18.47;;;16.77;;
13090;SDS011;6611;52.604;13.438;2022-08-19T01:58:27;19.03;;;17.33;;
13090;SDS011;6611;52.604;13.438;2022-08-19T02:03:33;17.60;;;16.07;;
13090;SDS011;6611;52.604;13.438;2022-08-19T02:08:36;19.40;;;17.60;;
13090;SDS011;6611;52.604;13.438;2022-08-19T02:13:39;23.80;;;18.70;;
13090;SDS011;6611;52.604;13.438;2022-08-19T02:18:40;19.10;;;17.07;;
13090;SDS011;6611;52.604;13.438;2022-08-19T02:23:43;19.00;;;17.07;;
13090;SDS011;6611;52.604;13.438;2022-08-19T02:28:45;16.87;;;15.37;;
13090;SDS011;6611;52.604;13.438;2022-08-19T02:33:48;17.97;;;16.37;;
13090;SDS011;6611;52.604;13.438;2022-08-19T02:38:51;16.03;;;14.53;;
13090;SDS011;6611;52.604;13.438;2022-08-19T02:43:53;16.70;;;15.10;;
13090;SDS011;6611;52.604;13.438;2022-08-19T02:48:57;17.57;;;15.87;;
13090;SDS011;6611;52.604;13.438;2022-08-19T02:54:03;16.77;;;15.23;;
13090;SDS011;6611;52.604;13.438;2022-08-19T02:59:06;16.77;;;15.30;;
13090;SDS011;6611;52.604;13.438;2022-08-19T03:04:12;16.60;;;14.97;;
13090;SDS011;6611;52.604;13.438;2022-08-19T03:09:17;16.50;;;14.97;;
13090;SDS011;6611;52.604;13.438;2022-08-19T03:14:19;15.60;;;14.23;;
13090;SDS011;6611;52.604;13.438;2022-08-19T03:19:21;15.20;;;13.80;;
13090;SDS011;6611;52.604;13.438;2022-08-19T03:24:23;16.03;;;14.63;;
13090;SDS011;6611;52.604;13.438;2022-08-19T03:29:26;18.83;;;17.03;;
13090;SDS011;6611;52.604;13.438;2022-08-19T03:34:32;15.50;;;14.10;;
13090;SDS011;6611;52.604;13.438;2022-08-19T03:39:36;15.63;;;14.30;;
13090;SDS011;6611;52.604;13.438;2022-08-19T03:44:39;15.90;;;14.40;;
13090;SDS011;6611;52.604;13.438;2022-08-19T03:49:42;14.87;;;13.57;;
13090;SDS011;6611;52.604;13.438;2022-08-19T03:54:45;16.87;;;15.07;;
13090;SDS011;6611;52.604;13.438;2022-08-19T03:59:47;16.90;;;15.40;;
13090;SDS011;6611;52.604;13.438;2022-08-19T04:04:48;17.50;;;15.90;;
13090;SDS011;6611;52.604;13.438;2022-08-19T04:09:51;19.50;;;17.60;;
13090;SDS011;6611;52.604;13.438;2022-08-19T04:14:53;18.97;;;17.27;;
13090;SDS011;6611;52.604;13.438;2022-08-19T04:19:55;18.47;;;16.87;;
13090;SDS011;6611;52.604;13.438;2022-08-19T04:24:58;18.50;;;16.80;;
13090;SDS011;6611;52.604;13.438;2022-08-19T04:29:59;19.20;;;17.47;;
13090;SDS011;6611;52.604;13.438;2022-08-19T04:35:01;17.50;;;16.03;;
13090;SDS011;6611;52.604;13.438;2022-08-19T04:40:05;16.50;;;15.00;;
13090;SDS011;6611;52.604;13.438;2022-08-19T04:45:25;15.13;;;13.77;;
13090;SDS011;6611;52.604;13.438;2022-08-19T04:50:26;16.77;;;15.20;;
13090;SDS011;6611;52.604;13.438;2022-08-19T04:55:29;16.10;;;14.60;;
13090;SDS011;6611;52.604;13.438;2022-08-19T05:00:31;17.00;;;15.40;;
13090;SDS011;6611;52.604;13.438;2022-08-19T05:05:32;18.00;;;16.37;;
13090;SDS011;6611;52.604;13.438;2022-08-19T05:10:36;18.33;;;16.50;;
13090;SDS011;6611;52.604;13.438;2022-08-19T05:15:38;18.00;;;16.50;;
13090;SDS011;6611;52.604;13.438;2022-08-19T05:20:40;15.83;;;14.43;;
13090;SDS011;6611;52.604;13.438;2022-08-19T05:26:01;15.43;;;14.00;;
13090;SDS011;6611;52.604;13.438;2022-08-19T05:31:02;17.70;;;16.00;;
13090;SDS011;6611;52.604;13.438;2022-08-19T05:36:04;16.70;;;15.27;;
13090;SDS011;6611;52.604;13.438;2022-08-19T05:41:09;18.07;;;16.57;;
13090;SDS011;6611;52.604;13.438;2022-08-19T05:46:15;17.33;;;15.70;;
13090;SDS011;6611;52.604;13.438;2022-08-19T05:51:19;17.83;;;16.20;;
13090;SDS011;6611;52.604;13.438;2022-08-19T05:56:21;18.00;;;16.20;;
13090;SDS011;6611;52.604;13.438;2022-08-19T06:01:23;17.93;;;16.43;;
13090;SDS011;6611;52.604;13.438;2022-08-19T06:06:26;16.63;;;15.07;;
13090;SDS011;6611;52.604;13.438;2022-08-19T06:11:33;17.80;;;16.23;;
13090;SDS011;6611;52.604;13.438;2022-08-19T06:16:38;16.20;;;14.87;;
13090;SDS011;6611;52.604;13.438;2022-08-19T06:21:41;18.37;;;16.63;;
13090;SDS011;6611;52.604;13.438;2022-08-19T06:26:46;19.60;;;17.90;;
13090;SDS011;6611;52.604;13.438;2022-08-19T06:31:50;20.57;;;18.77;;
13090;SDS011;6611;52.604;13.438;2022-08-19T06:36:54;19.57;;;17.97;;
13090;SDS011;6611;52.604;13.438;2022-08-19T06:41:58;18.83;;;17.13;;
13090;SDS011;6611;52.604;13.438;2022-08-19T06:47:01;19.80;;;18.00;;
13090;SDS011;6611;52.604;13.438;2022-08-19T06:52:04;19.87;;;17.90;;
13090;SDS011;6611;52.604;13.438;2022-08-19T06:57:08;19.67;;;17.97;;
13090;SDS011;6611;52.604;13.438;2022-08-19T07:02:15;20.07;;;18.03;;
13090;SDS011;6611;52.604;13.438;2022-08-19T07:07:16;21.53;;;19.73;;
13090;SDS011;6611;52.604;13.438;2022-08-19T07:12:19;19.97;;;18.37;;
13090;SDS011;6611;52.604;13.438;2022-08-19T07:17:21;21.63;;;19.73;;
13090;SDS011;6611;52.604;13.438;2022-08-19T07:22:22;20.10;;;18.10;;
13090;SDS011;6611;52.604;13.438;2022-08-19T07:27:25;22.97;;;20.50;;
13090;SDS011;6611;52.604;13.438;2022-08-19T07:32:27;23.77;;;21.63;;
13090;SDS011;6611;52.604;13.438;2022-08-19T07:37:30;22.20;;;20.03;;
13090;SDS011;6611;52.604;13.438;2022-08-19T07:42:33;20.67;;;18.87;;
13090;SDS011;6611;52.604;13.438;2022-08-19T07:47:35;22.57;;;20.67;;
13090;SDS011;6611;52.604;13.438;2022-08-19T07:52:36;23.37;;;21.37;;
13090;SDS011;6611;52.604;13.438;2022-08-19T07:57:40;22.20;;;20.30;;
13090;SDS011;6611;52.604;13.438;2022-08-19T08:02:42;23.90;;;21.83;;
13090;SDS011;6611;52.604;13.438;2022-08-19T08:07:44;25.17;;;23.03;;
13090;SDS011;6611;52.604;13.438;2022-08-19T08:13:04;24.53;;;22.43;;
13090;SDS011;6611;52.604;13.438;2022-08-19T08:18:06;24.47;;;22.47;;
13090;SDS011;6611;52.604;13.438;2022-08-19T08:23:07;25.83;;;23.60;;
13090;SDS011;6611;52.604;13.438;2022-08-19T08:28:26;26.57;;;24.30;;
13090;SDS011;6611;52.604;13.438;2022-08-19T08:33:30;26.07;;;23.87;;
13090;SDS011;6611;52.604;13.438;2022-08-19T08:38:32;25.47;;;23.17;;
13090;SDS011;6611;52.604;13.438;2022-08-19T08:43:36;24.97;;;22.67;;
13090;SDS011;6611;52.604;13.438;2022-08-19T08:48:44;23.27;;;21.13;;
13090;SDS011;6611;52.604;13.438;2022-08-19T08:53:51;25.30;;;23.13;;
13090;SDS011;6611;52.604;13.438;2022-08-19T08:58:57;24.13;;;22.17;;
13090;SDS011;6611;52.604;13.438;2022-08-19T09:04:04;22.13;;;20.17;;
13090;SDS011;6611;52.604;13.438;2022-08-19T09:09:10;22.47;;;20.57;;
13090;SDS011;6611;52.604;13.438;2022-08-19T09:14:19;24.00;;;21.67;;
13090;SDS011;6611;52.604;13.438;2022-08-19T09:19:31;22.80;;;20.80;;
13090;SDS011;6611;52.604;13.438;2022-08-19T09:24:33;21.27;;;19.40;;
13090;SDS011;6611;52.604;13.438;2022-08-19T09:29:37;19.37;;;17.57;;
13090;SDS011;6611;52.604;13.438;2022-08-19T09:34:38;18.43;;;16.73;;
13090;SDS011;6611;52.604;13.438;2022-08-19T09:39:40;17.87;;;16.27;;
13090;SDS011;6611;52.604;13.438;2022-08-19T09:44:44;17.23;;;15.47;;
13090;SDS011;6611;52.604;13.438;2022-08-19T09:49:45;16.70;;;15.10;;
13090;SDS011;6611;52.604;13.438;2022-08-19T09:54:51;17.90;;;16.03;;
13090;SDS011;6611;52.604;13.438;2022-08-19T09:59:54;17.90;;;16.30;;
13090;SDS011;6611;52.604;13.438;2022-08-19T10:04:56;16.90;;;15.40;;
13090;SDS011;6611;52.604;13.438;2022-08-19T10:10:15;16.40;;;15.00;;
13090;SDS011;6611;52.604;13.438;2022-08-19T10:15:18;16.40;;;15.07;;
13090;SDS011;6611;52.604;13.438;2022-08-19T10:20:21;15.40;;;14.03;;
13090;SDS011;6611;52.604;13.438;2022-08-19T10:25:22;16.80;;;15.43;;
13090;SDS011;6611;52.604;13.438;2022-08-19T10:30:25;17.30;;;15.60;;
13090;SDS011;6611;52.604;13.438;2022-08-19T10:35:27;15.67;;;14.33;;
13090;SDS011;6611;52.604;13.438;2022-08-19T10:40:29;15.83;;;14.40;;
13090;SDS011;6611;52.604;13.438;2022-08-19T10:45:32;15.63;;;14.43;;
13090;SDS011;6611;52.604;13.438;2022-08-19T10:50:34;15.57;;;14.27;;
13090;SDS011;6611;52.604;13.438;2022-08-19T10:55:55;16.10;;;14.70;;
13090;SDS011;6611;52.604;13.438;2022-08-19T11:01:15;15.33;;;14.13;;
13090;SDS011;6611;52.604;13.438;2022-08-19T11:06:17;15.43;;;14.03;;
13090;SDS011;6611;52.604;13.438;2022-08-19T11:11:19;15.33;;;14.03;;
13090;SDS011;6611;52.604;13.438;2022-08-19T11:16:23;16.50;;;15.00;;
13090;SDS011;6611;52.604;13.438;2022-08-19T11:21:27;16.07;;;14.77;;
13090;SDS011;6611;52.604;13.438;2022-08-19T11:26:31;16.17;;;14.70;;
13090;SDS011;6611;52.604;13.438;2022-08-19T11:31:35;15.00;;;13.70;;
13090;SDS011;6611;52.604;13.438;2022-08-19T11:36:39;15.27;;;14.00;;
13090;SDS011;6611;52.604;13.438;2022-08-19T11:41:44;14.57;;;13.37;;
13090;SDS011;6611;52.604;13.438;2022-08-19T11:46:46;15.80;;;14.43;;
13090;SDS011;6611;52.604;13.438;2022-08-19T11:51:48;14.87;;;13.67;;
13090;SDS011;6611;52.604;13.438;2022-08-19T11:56:50;16.03;;;14.50;;
13090;SDS011;6611;52.604;13.438;2022-08-19T12:01:53;14.57;;;13.17;;
13090;SDS011;6611;52.604;13.438;2022-08-19T12:06:57;15.47;;;13.97;;
13090;SDS011;6611;52.604;13.438;2022-08-19T12:11:58;14.77;;;13.53;;
13090;SDS011;6611;52.604;13.438;2022-08-19T12:17:02;12.70;;;11.70;;
13090;SDS011;6611;52.604;13.438;2022-08-19T12:22:06;11.60;;;10.60;;
13090;SDS011;6611;52.604;13.438;2022-08-19T12:27:07;11.70;;;10.63;;
13090;SDS011;6611;52.604;13.438;2022-08-19T12:32:10;10.97;;;10.07;;
13090;SDS011;6611;52.604;13.438;2022-08-19T12:37:12;11.97;;;10.97;;
13090;SDS011;6611;52.604;13.438;2022-08-19T12:42:14;12.70;;;11.40;;
13090;SDS011;6611;52.604;13.438;2022-08-19T12:47:19;12.63;;;11.60;;
13090;SDS011;6611;52.604;13.438;2022-08-19T12:52:21;13.20;;;12.20;;
13090;SDS011;6611;52.604;13.438;2022-08-19T12:57:26;12.40;;;11.30;;
13090;SDS011;6611;52.604;13.438;2022-08-19T13:02:30;12.77;;;11.48;;
13090;SDS011;6611;52.604;13.438;2022-08-19T13:07:32;12.87;;;11.67;;
13090;SDS011;6611;52.604;13.438;2022-08-19T13:12:34;12.73;;;11.67;;
13090;SDS011;6611;52.604;13.438;2022-08-19T13:17:38;12.52;;;11.45;;
13090;SDS011;6611;52.604;13.438;2022-08-19T13:22:41;12.70;;;11.57;;
13090;SDS011;6611;52.604;13.438;2022-08-19T13:27:44;12.85;;;11.65;;
13090;SDS011;6611;52.604;13.438;2022-08-19T13:32:48;12.15;;;11.15;;
13090;SDS011;6611;52.604;13.438;2022-08-19T13:38:07;11.80;;;10.73;;
13090;SDS011;6611;52.604;13.438;2022-08-19T13:43:09;12.80;;;11.70;;
13090;SDS011;6611;52.604;13.438;2022-08-19T13:48:12;12.25;;;11.10;;
13090;SDS011;6611;52.604;13.438;2022-08-19T13:53:14;12.40;;;11.10;;
13090;SDS011;6611;52.604;13.438;2022-08-19T13:58:16;12.40;;;11.30;;
13090;SDS011;6611;52.604;13.438;2022-08-19T14:03:19;11.93;;;10.98;;
13090;SDS011;6611;52.604;13.438;2022-08-19T14:08:21;12.90;;;11.80;;
13090;SDS011;6611;52.604;13.438;2022-08-19T14:13:23;12.23;;;11.13;;
13090;SDS011;6611;52.604;13.438;2022-08-19T14:18:27;12.77;;;11.67;;
13090;SDS011;6611;52.604;13.438;2022-08-19T14:23:28;12.53;;;11.43;;
13090;SDS011;6611;52.604;13.438;2022-08-19T14:28:30;12.30;;;11.27;;
13090;SDS011;6611;52.604;13.438;2022-08-19T14:33:33;12.47;;;11.37;;
13090;SDS011;6611;52.604;13.438;2022-08-19T14:38:34;12.63;;;11.53;;
13090;SDS011;6611;52.604;13.438;2022-08-19T14:43:36;11.13;;;10.17;;
13090;SDS011;6611;52.604;13.438;2022-08-19T14:48:39;11.77;;;10.68;;
13090;SDS011;6611;52.604;13.438;2022-08-19T14:53:41;12.10;;;11.00;;
13090;SDS011;6611;52.604;13.438;2022-08-19T14:58:43;11.70;;;10.67;;
13090;SDS011;6611;52.604;13.438;2022-08-19T15:03:46;11.90;;;10.83;;
13090;SDS011;6611;52.604;13.438;2022-08-19T15:08:49;12.33;;;11.30;;
13090;SDS011;6611;52.604;13.438;2022-08-19T15:13:51;13.13;;;11.93;;
13090;SDS011;6611;52.604;13.438;2022-08-19T15:18:55;11.60;;;10.50;;
13090;SDS011;6611;52.604;13.438;2022-08-19T15:23:59;11.20;;;10.20;;
13090;SDS011;6611;52.604;13.438;2022-08-19T15:29:02;26.40;;;16.43;;
13090;SDS011;6611;52.604;13.438;2022-08-19T15:34:05;12.17;;;11.07;;
13090;SDS011;6611;52.604;13.438;2022-08-19T15:39:07;12.07;;;10.97;;
13090;SDS011;6611;52.604;13.438;2022-08-19T15:44:11;12.33;;;11.23;;
13090;SDS011;6611;52.604;13.438;2022-08-19T15:49:16;11.43;;;10.43;;
13090;SDS011;6611;52.604;13.438;2022-08-19T15:54:20;10.80;;;9.90;;
13090;SDS011;6611;52.604;13.438;2022-08-19T15:59:21;11.43;;;10.47;;
13090;SDS011;6611;52.604;13.438;2022-08-19T16:04:42;11.60;;;10.47;;
13090;SDS011;6611;52.604;13.438;2022-08-19T16:10:02;10.70;;;9.80;;
13090;SDS011;6611;52.604;13.438;2022-08-19T16:15:05;11.17;;;10.27;;
13090;SDS011;6611;52.604;13.438;2022-08-19T16:20:10;11.33;;;10.37;;
13090;SDS011;6611;52.604;13.438;2022-08-19T16:25:12;11.47;;;10.47;;
13090;SDS011;6611;52.604;13.438;2022-08-19T16:30:14;11.07;;;10.07;;
13090;SDS011;6611;52.604;13.438;2022-08-19T16:35:17;12.20;;;11.23;;
13090;SDS011;6611;52.604;13.438;2022-08-19T16:40:18;12.77;;;11.57;;
13090;SDS011;6611;52.604;13.438;2022-08-19T16:45:20;11.50;;;10.40;;
13090;SDS011;6611;52.604;13.438;2022-08-19T16:50:23;12.43;;;11.33;;
13090;SDS011;6611;52.604;13.438;2022-08-19T16:55:25;11.70;;;10.80;;
13090;SDS011;6611;52.604;13.438;2022-08-19T17:00:27;11.70;;;10.70;;
13090;SDS011;6611;52.604;13.438;2022-08-19T17:05:30;12.03;;;11.03;;
13090;SDS011;6611;52.604;13.438;2022-08-19T17:10:32;12.07;;;11.10;;
13090;SDS011;6611;52.604;13.438;2022-08-19T17:15:34;11.97;;;10.97;;
13090;SDS011;6611;52.604;13.438;2022-08-19T17:20:37;11.77;;;10.87;;
13090;SDS011;6611;52.604;13.438;2022-08-19T17:25:40;12.70;;;11.60;;
13090;SDS011;6611;52.604;13.438;2022-08-19T17:30:42;12.37;;;11.37;;
13090;SDS011;6611;52.604;13.438;2022-08-19T17:35:45;12.13;;;10.77;;
13090;SDS011;6611;52.604;13.438;2022-08-19T17:40:47;12.37;;;11.37;;
13090;SDS011;6611;52.604;13.438;2022-08-19T17:45:49;12.63;;;11.53;;
13090;SDS011;6611;52.604;13.438;2022-08-19T17:50:52;12.30;;;11.20;;
13090;SDS011;6611;52.604;13.438;2022-08-19T17:55:54;10.00;;;9.17;;
13090;SDS011;6611;52.604;13.438;2022-08-19T18:00:56;9.67;;;8.87;;
13090;SDS011;6611;52.604;13.438;2022-08-19T18:06:01;8.37;;;7.77;;
13090;SDS011;6611;52.604;13.438;2022-08-19T18:11:03;8.20;;;7.50;;
13090;SDS011;6611;52.604;13.438;2022-08-19T18:16:05;8.07;;;7.43;;
13090;SDS011;6611;52.604;13.438;2022-08-19T18:21:11;8.60;;;7.90;;
13090;SDS011;6611;52.604;13.438;2022-08-19T18:26:13;8.17;;;7.47;;
13090;SDS011;6611;52.604;13.438;2022-08-19T18:31:15;9.13;;;7.60;;
13090;SDS011;6611;52.604;13.438;2022-08-19T18:36:18;8.23;;;7.53;;
13090;SDS011;6611;52.604;13.438;2022-08-19T18:41:20;7.70;;;7.10;;
13090;SDS011;6611;52.604;13.438;2022-08-19T18:46:39;7.70;;;7.10;;
13090;SDS011;6611;52.604;13.438;2022-08-19T18:51:59;9.27;;;7.43;;
13090;SDS011;6611;52.604;13.438;2022-08-19T18:57:02;8.00;;;7.20;;
13090;SDS011;6611;52.604;13.438;2022-08-19T19:02:04;7.33;;;6.73;;
13090;SDS011;6611;52.604;13.438;2022-08-19T19:07:07;7.83;;;7.23;;
13090;SDS011;6611;52.604;13.438;2022-08-19T19:12:10;7.90;;;7.20;;
13090;SDS011;6611;52.604;13.438;2022-08-19T19:17:13;11.63;;;10.43;;
13090;SDS011;6611;52.604;13.438;2022-08-19T19:22:17;25.17;;;22.87;;
13090;SDS011;6611;52.604;13.438;2022-08-19T19:27:20;21.57;;;19.63;;
13090;SDS011;6611;52.604;13.438;2022-08-19T19:32:23;16.07;;;14.67;;
13090;SDS011;6611;52.604;13.438;2022-08-19T19:37:27;13.10;;;11.90;;
13090;SDS011;6611;52.604;13.438;2022-08-19T19:42:29;9.97;;;9.07;;
13090;SDS011;6611;52.604;13.438;2022-08-19T19:47:31;8.70;;;8.00;;
13090;SDS011;6611;52.604;13.438;2022-08-19T19:52:33;8.87;;;8.10;;
13090;SDS011;6611;52.604;13.438;2022-08-19T19:57:35;10.70;;;9.60;;
13090;SDS011;6611;52.604;13.438;2022-08-19T20:02:39;9.77;;;8.97;;
13090;SDS011;6611;52.604;13.438;2022-08-19T20:07:44;10.27;;;9.30;;
13090;SDS011;6611;52.604;13.438;2022-08-19T20:13:03;10.77;;;9.97;;
13090;SDS011;6611;52.604;13.438;2022-08-19T20:18:06;10.93;;;10.03;;
13090;SDS011;6611;52.604;13.438;2022-08-19T20:23:09;10.27;;;9.37;;
13090;SDS011;6611;52.604;13.438;2022-08-19T20:28:11;10.27;;;9.37;;
13090;SDS011;6611;52.604;13.438;2022-08-19T20:33:12;10.73;;;9.83;;
13090;SDS011;6611;52.604;13.438;2022-08-19T20:38:15;9.37;;;8.57;;
13090;SDS011;6611;52.604;13.438;2022-08-19T20:43:17;9.80;;;8.90;;
13090;SDS011;6611;52.604;13.438;2022-08-19T20:48:19;10.23;;;9.33;;
13090;SDS011;6611;52.604;13.438;2022-08-19T20:53:22;10.90;;;9.90;;
13090;SDS011;6611;52.604;13.438;2022-08-19T20:58:26;10.97;;;9.87;;
13090;SDS011;6611;52.604;13.438;2022-08-19T21:03:28;10.63;;;9.77;;
13090;SDS011;6611;52.604;13.438;2022-08-19T21:08:33;10.57;;;9.57;;
13090;SDS011;6611;52.604;13.438;2022-08-19T21:13:35;11.63;;;10.63;;
13090;SDS011;6611;52.604;13.438;2022-08-19T21:18:37;11.93;;;10.93;;
13090;SDS011;6611;52.604;13.438;2022-08-19T21:23:40;11.90;;;10.90;;
13090;SDS011;6611;52.604;13.438;2022-08-19T21:28:41;11.83;;;10.83;;
13090;SDS011;6611;52.604;13.438;2022-08-19T21:33:43;13.07;;;11.90;;
13090;SDS011;6611;52.604;13.438;2022-08-19T21:38:46;13.83;;;12.63;;
13090;SDS011;6611;52.604;13.438;2022-08-19T21:43:48;13.00;;;11.80;;
13090;SDS011;6611;52.604;13.438;2022-08-19T21:48:49;13.60;;;12.40;;
13090;SDS011;6611;52.604;13.438;2022-08-19T21:53:52;12.50;;;11.50;;
13090;SDS011;6611;52.604;13.438;2022-08-19T21:58:54;12.97;;;11.87;;
13090;SDS011;6611;52.604;13.438;2022-08-19T22:03:55;13.60;;;12.50;;
13090;SDS011;6611;52.604;13.438;2022-08-19T22:08:58;14.13;;;12.83;;
13090;SDS011;6611;52.604;13.438;2022-08-19T22:14:00;12.60;;;11.60;;
13090;SDS011;6611;52.604;13.438;2022-08-19T22:19:02;13.90;;;12.73;;
13090;SDS011;6611;52.604;13.438;2022-08-19T22:24:06;13.40;;;12.30;;
13090;SDS011;6611;52.604;13.438;2022-08-19T22:29:08;15.47;;;14.07;;
13090;SDS011;6611;52.604;13.438;2022-08-19T22:34:10;17.20;;;15.70;;
13090;SDS011;6611;52.604;13.438;2022-08-19T22:39:13;16.90;;;15.37;;
13090;SDS011;6611;52.604;13.438;2022-08-19T22:44:15;19.50;;;17.43;;
13090;SDS011;6611;52.604;13.438;2022-08-19T22:49:17;19.47;;;17.77;;
13090;SDS011;6611;52.604;13.438;2022-08-19T22:54:19;22.07;;;20.07;;
13090;SDS011;6611;52.604;13.438;2022-08-19T22:59:21;24.30;;;22.00;;
13090;SDS011;6611;52.604;13.438;2022-08-19T23:04:23;22.50;;;20.20;;
13090;SDS011;6611;52.604;13.438;2022-08-19T23:09:25;24.10;;;21.87;;
13090;SDS011;6611;52.604;13.438;2022-08-19T23:14:27;24.97;;;22.70;;
13090;SDS011;6611;52.604;13.438;2022-08-19T23:19:29;24.47;;;22.03;;
13090;SDS011;6611;52.604;13.438;2022-08-19T23:24:32;23.43;;;21.23;;
13090;SDS011;6611;52.604;13.438;2022-08-19T23:29:34;22.57;;;20.53;;
13090;SDS011;6611;52.604;13.438;2022-08-19T23:34:53;24.03;;;21.73;;
13090;SDS011;6611;52.604;13.438;2022-08-19T23:39:56;24.90;;;22.27;;
13090;SDS011;6611;52.604;13.438;2022-08-19T23:44:58;22.70;;;20.43;;
13090;SDS011;6611;52.604;13.438;2022-08-19T23:50:01;25.13;;;22.70;;
13090;SDS011;6611;52.604;13.438;2022-08-19T23:55:07;28.43;;;24.90;;
